Time;durP1;ratioP1;P1;durP2;ratioP2;P2;SDS_P1;SDS_P2;PMS_P1;PMS_P2;Temp;Humidity;BMP_temperature;BMP_pressure;BME280_temperature;BME280_humidity;BME280_pressure;Samples;Min_cycle;Max_cycle;Signal;HPM_P1;HPM_P2
2023/08/12 00:00:09;;;;;;;11.73;8.90;;;21.40;23.80;;;;;;5025166;28;20538;-67
2023/08/12 00:02:37;;;;;;;9.97;6.90;;;21.40;24.20;;;;;;5020834;28;20561;-67
2023/08/12 00:05:05;;;;;;;8.70;7.00;;;21.30;24.00;;;;;;5022859;28;20471;-67
2023/08/12 00:07:32;;;;;;;11.40;8.40;;;21.30;24.40;;;;;;5024671;28;20878;-67
2023/08/12 00:09:59;;;;;;;16.33;7.63;;;21.30;24.60;;;;;;5024832;28;20503;-67
2023/08/12 00:12:27;;;;;;;10.07;7.87;;;21.30;24.60;;;;;;5025920;28;20470;-67
2023/08/12 00:14:54;;;;;;;11.53;8.53;;;21.20;24.70;;;;;;5015279;28;20479;-67
2023/08/12 00:17:21;;;;;;;10.77;8.20;;;21.20;25.00;;;;;;5024784;28;20486;-67
2023/08/12 00:19:47;;;;;;;14.07;8.57;;;21.20;25.10;;;;;;5021960;28;20489;-67
2023/08/12 00:22:14;;;;;;;13.30;8.83;;;21.20;24.90;;;;;;5020832;28;21014;-67
2023/08/12 00:24:41;;;;;;;13.63;9.80;;;21.20;25.10;;;;;;5024089;28;20462;-67
2023/08/12 00:27:08;;;;;;;13.43;9.40;;;21.10;25.00;;;;;;5021419;28;20978;-67
2023/08/12 00:29:36;;;;;;;17.17;9.73;;;21.10;25.00;;;;;;5025462;28;20465;-67
2023/08/12 00:32:04;;;;;;;11.40;8.63;;;21.10;25.10;;;;;;5023761;28;20474;-67
2023/08/12 00:34:30;;;;;;;17.40;10.63;;;21.20;25.20;;;;;;5025460;28;20971;-67
2023/08/12 00:36:57;;;;;;;13.50;8.23;;;21.10;25.20;;;;;;5024167;28;20454;-67
2023/08/12 00:39:24;;;;;;;12.10;8.47;;;21.10;25.30;;;;;;5023532;28;20471;-68
2023/08/12 00:41:51;;;;;;;16.77;9.57;;;21.10;25.70;;;;;;5019884;28;20550;-67
2023/08/12 00:44:17;;;;;;;18.63;8.80;;;21.00;25.70;;;;;;5025123;28;20474;-67
2023/08/12 00:46:46;;;;;;;11.70;9.07;;;21.00;25.90;;;;;;5024431;28;20469;-67
2023/08/12 00:49:13;;;;;;;12.20;9.00;;;21.00;26.20;;;;;;5025981;28;20473;-67
2023/08/12 00:51:42;;;;;;;12.83;8.70;;;20.90;26.50;;;;;;5022334;28;20470;-66
2023/08/12 00:54:13;;;;;;;11.27;9.27;;;20.90;27.00;;;;;;5022504;28;20485;-66
2023/08/12 00:56:40;;;;;;;13.83;9.23;;;20.90;27.00;;;;;;5024835;28;20455;-67
2023/08/12 00:59:09;;;;;;;14.87;10.40;;;20.80;27.00;;;;;;5019845;28;20490;-67
2023/08/12 01:01:39;;;;;;;14.00;9.63;;;20.80;27.40;;;;;;5022504;28;20502;-68
2023/08/12 01:04:07;;;;;;;13.17;9.90;;;20.70;27.60;;;;;;5022536;28;20459;-67
2023/08/12 01:06:34;;;;;;;15.30;10.40;;;20.70;27.70;;;;;;5020953;28;20467;-67
2023/08/12 01:09:01;;;;;;;14.57;8.70;;;20.70;27.60;;;;;;5022079;28;20507;-67
2023/08/12 01:11:35;;;;;;;13.90;8.87;;;20.70;27.60;;;;;;5020308;28;20475;-67
2023/08/12 01:14:09;;;;;;;11.43;9.10;;;20.60;27.60;;;;;;5022044;28;20830;-67
2023/08/12 01:16:42;;;;;;;10.00;8.70;;;20.60;27.60;;;;;;5024797;28;20473;-67
2023/08/12 01:19:28;;;;;;;11.83;8.10;;;20.60;27.70;;;;;;5026987;28;20982;-67
2023/08/12 01:22:00;;;;;;;12.07;8.63;;;20.60;27.60;;;;;;5025257;28;20959;-67
2023/08/12 01:24:34;;;;;;;17.17;8.93;;;20.60;27.40;;;;;;5029300;28;20462;-67
2023/08/12 01:27:01;;;;;;;14.20;8.93;;;20.50;27.60;;;;;;5027257;28;20457;-68
2023/08/12 01:29:28;;;;;;;10.50;8.23;;;20.50;27.50;;;;;;5027367;28;20463;-67
2023/08/12 01:31:59;;;;;;;19.77;9.70;;;20.50;27.80;;;;;;5027260;28;20486;-67
2023/08/12 01:34:32;;;;;;;14.60;8.90;;;20.40;27.70;;;;;;5026136;28;20479;-67
2023/08/12 01:37:00;;;;;;;16.27;9.13;;;20.40;27.80;;;;;;5026746;28;21006;-67
2023/08/12 01:39:30;;;;;;;13.20;8.60;;;20.30;28.10;;;;;;5020122;28;20489;-67
2023/08/12 01:41:58;;;;;;;13.30;9.33;;;20.30;28.30;;;;;;5026752;28;20477;-67
2023/08/12 01:44:25;;;;;;;13.93;9.73;;;20.30;28.60;;;;;;5027502;28;20462;-67
2023/08/12 01:46:52;;;;;;;13.97;10.40;;;20.30;28.50;;;;;;5027497;28;20463;-67
2023/08/12 01:49:19;;;;;;;15.30;10.83;;;20.30;28.50;;;;;;5028147;28;20466;-67
2023/08/12 01:51:45;;;;;;;12.63;9.73;;;20.20;28.40;;;;;;5025194;28;21015;-68
2023/08/12 01:54:12;;;;;;;15.13;11.33;;;20.20;28.70;;;;;;5027704;28;20490;-67
2023/08/12 01:56:40;;;;;;;13.80;10.90;;;20.10;28.80;;;;;;5026435;28;20471;-67
2023/08/12 01:59:07;;;;;;;11.40;10.00;;;20.10;29.00;;;;;;5028835;28;20497;-67
2023/08/12 02:01:33;;;;;;;14.87;9.67;;;20.10;29.20;;;;;;5022886;28;20475;-67
2023/08/12 02:04:00;;;;;;;11.47;8.97;;;20.00;29.00;;;;;;5021724;28;20474;-67
2023/08/12 02:06:27;;;;;;;12.77;9.50;;;20.00;29.00;;;;;;5020614;28;20990;-67
2023/08/12 02:08:54;;;;;;;16.53;9.90;;;20.00;29.20;;;;;;5023376;28;20490;-67
2023/08/12 02:11:20;;;;;;;12.43;10.13;;;19.90;29.50;;;;;;5027001;28;20986;-67
2023/08/12 02:13:48;;;;;;;12.20;9.70;;;19.90;29.80;;;;;;5020509;28;20487;-68
2023/08/12 02:16:15;;;;;;;14.27;10.17;;;19.90;29.70;;;;;;5024806;28;20498;-68
2023/08/12 02:18:42;;;;;;;14.93;11.20;;;19.90;29.60;;;;;;5027005;28;20858;-67
2023/08/12 02:21:08;;;;;;;13.47;10.10;;;19.80;29.90;;;;;;5024516;28;20459;-67
2023/08/12 02:23:35;;;;;;;13.13;10.27;;;19.80;29.80;;;;;;5024145;28;20451;-67
2023/08/12 02:26:02;;;;;;;13.70;10.60;;;19.80;29.90;;;;;;5025783;28;20995;-67
2023/08/12 02:28:29;;;;;;;12.63;9.27;;;19.70;30.20;;;;;;5025525;28;20491;-67
2023/08/12 02:30:57;;;;;;;13.80;9.50;;;19.70;30.30;;;;;;5025118;28;20547;-67
2023/08/12 02:33:24;;;;;;;11.47;9.23;;;19.70;30.20;;;;;;5025784;28;20558;-67
2023/08/12 02:35:54;;;;;;;11.47;9.80;;;19.70;30.10;;;;;;5025275;28;20470;-67
2023/08/12 02:38:20;;;;;;;12.97;11.17;;;19.70;30.00;;;;;;5027910;28;20500;-67
2023/08/12 02:40:49;;;;;;;16.53;11.97;;;19.70;29.90;;;;;;5027281;28;20467;-67
2023/08/12 02:43:16;;;;;;;13.57;11.30;;;19.60;30.10;;;;;;5023774;28;20545;-67
2023/08/12 02:45:43;;;;;;;14.67;11.30;;;19.60;30.00;;;;;;5025571;28;20468;-67
2023/08/12 02:48:11;;;;;;;14.67;12.30;;;19.60;30.20;;;;;;5028236;28;20482;-67
2023/08/12 02:50:38;;;;;;;14.60;10.83;;;19.60;30.30;;;;;;5023484;28;20467;-67
2023/08/12 02:53:06;;;;;;;14.10;12.10;;;19.60;30.60;;;;;;5025874;28;20471;-67
2023/08/12 02:55:33;;;;;;;13.80;10.30;;;19.60;30.90;;;;;;5025516;28;20474;-67
2023/08/12 02:58:00;;;;;;;13.03;10.77;;;19.50;30.80;;;;;;5026297;28;20585;-67
2023/08/12 03:00:27;;;;;;;16.60;11.67;;;19.50;30.60;;;;;;5023653;28;20925;-67
2023/08/12 03:02:54;;;;;;;15.07;10.93;;;19.50;30.60;;;;;;5022335;28;20466;-67
2023/08/12 03:05:22;;;;;;;14.90;11.17;;;19.50;30.70;;;;;;5020720;28;20470;-67
2023/08/12 03:07:49;;;;;;;14.13;11.07;;;19.40;31.00;;;;;;5025940;28;20497;-67
2023/08/12 03:10:16;;;;;;;14.07;11.27;;;19.40;31.20;;;;;;5026812;28;20482;-67
2023/08/12 03:12:42;;;;;;;16.57;11.00;;;19.40;31.20;;;;;;5025715;28;20462;-67
2023/08/12 03:15:10;;;;;;;12.47;11.17;;;19.40;31.20;;;;;;5026606;28;20481;-67
2023/08/12 03:17:38;;;;;;;20.73;11.03;;;19.40;31.40;;;;;;5025471;28;20486;-67
2023/08/12 03:20:08;;;;;;;15.87;11.47;;;19.40;31.30;;;;;;5022690;28;20954;-67
2023/08/12 03:22:36;;;;;;;15.83;11.73;;;19.40;31.20;;;;;;5025115;28;20471;-69
2023/08/12 03:25:04;;;;;;;12.93;11.03;;;19.40;31.30;;;;;;5023996;28;20459;-66
2023/08/12 03:27:30;;;;;;;12.10;10.27;;;19.30;31.50;;;;;;5023358;28;20511;-67
2023/08/12 03:29:57;;;;;;;14.90;11.20;;;19.30;31.60;;;;;;5031966;23;20495;-64
2023/08/12 03:32:24;;;;;;;15.47;11.00;;;19.30;31.30;;;;;;5023200;28;21021;-64
2023/08/12 03:34:51;;;;;;;17.43;11.47;;;19.20;31.40;;;;;;5024171;28;20475;-64
2023/08/12 03:37:18;;;;;;;14.50;11.00;;;19.20;31.70;;;;;;5022629;28;20487;-64
2023/08/12 03:39:46;;;;;;;13.70;11.63;;;19.20;31.70;;;;;;5025022;28;20474;-64
2023/08/12 03:42:12;;;;;;;14.50;11.03;;;19.10;32.00;;;;;;5024885;28;20560;-64
2023/08/12 03:44:39;;;;;;;13.10;10.80;;;19.10;32.00;;;;;;5023221;28;20482;-64
2023/08/12 03:47:06;;;;;;;14.07;11.67;;;19.10;31.90;;;;;;5024037;28;20482;-64
2023/08/12 03:49:32;;;;;;;14.50;11.73;;;19.00;32.20;;;;;;5024657;28;20474;-64
2023/08/12 03:51:59;;;;;;;13.83;11.03;;;19.00;32.30;;;;;;5024613;28;20482;-63
2023/08/12 03:54:26;;;;;;;13.13;11.50;;;19.00;32.30;;;;;;5023003;28;20483;-63
2023/08/12 03:56:54;;;;;;;12.50;10.90;;;19.00;32.50;;;;;;5022307;28;20479;-63
2023/08/12 03:59:21;;;;;;;13.33;11.53;;;19.00;32.50;;;;;;5023830;28;20557;-63
2023/08/12 04:01:47;;;;;;;14.07;10.93;;;19.00;32.60;;;;;;5021973;28;21021;-63
2023/08/12 04:04:14;;;;;;;13.23;10.50;;;19.00;32.70;;;;;;5018854;28;20850;-63
2023/08/12 04:06:41;;;;;;;13.10;9.67;;;18.90;32.60;;;;;;5022899;28;20468;-63
2023/08/12 04:09:08;;;;;;;12.87;10.40;;;18.90;32.80;;;;;;5024470;28;20482;-63
2023/08/12 04:11:34;;;;;;;10.97;8.93;;;18.90;32.90;;;;;;5023863;28;20459;-64
2023/08/12 04:14:03;;;;;;;11.60;10.43;;;18.90;33.00;;;;;;5023985;28;20479;-64
2023/08/12 04:16:29;;;;;;;11.20;10.00;;;18.90;33.10;;;;;;5021403;28;20463;-64
2023/08/12 04:18:56;;;;;;;12.70;9.63;;;18.90;33.50;;;;;;5023130;28;20483;-64
2023/08/12 04:21:23;;;;;;;10.97;9.37;;;18.90;33.70;;;;;;5025128;28;21059;-64
2023/08/12 04:23:49;;;;;;;13.10;9.03;;;18.90;33.40;;;;;;5017835;28;20482;-64
2023/08/12 04:26:16;;;;;;;11.67;9.13;;;18.90;33.60;;;;;;5024618;28;20471;-64
2023/08/12 04:28:43;;;;;;;11.40;10.20;;;19.00;33.40;;;;;;5024800;28;21026;-64
2023/08/12 04:31:11;;;;;;;11.53;9.23;;;19.00;33.40;;;;;;5020040;28;20467;-64
2023/08/12 04:33:38;;;;;;;10.40;8.40;;;19.00;33.20;;;;;;5019023;28;21142;-65
2023/08/12 04:36:05;;;;;;;11.13;8.80;;;19.10;33.10;;;;;;5021492;28;20490;-64
2023/08/12 04:38:32;;;;;;;12.50;8.67;;;19.10;33.20;;;;;;5026022;28;20486;-65
2023/08/12 04:40:58;;;;;;;10.10;9.00;;;19.20;33.20;;;;;;5020912;28;20495;-64
2023/08/12 04:43:26;;;;;;;10.67;8.30;;;19.20;33.00;;;;;;5019018;28;20971;-64
2023/08/12 04:45:53;;;;;;;9.77;8.20;;;19.30;33.10;;;;;;5021886;28;20466;-65
2023/08/12 04:48:21;;;;;;;11.53;8.97;;;19.30;33.10;;;;;;5024040;28;20479;-64
2023/08/12 04:50:48;;;;;;;11.27;8.33;;;19.30;33.00;;;;;;5023241;28;20967;-64
2023/08/12 04:53:14;;;;;;;11.00;9.57;;;19.40;32.70;;;;;;5023504;28;20466;-65
2023/08/12 04:55:41;;;;;;;9.90;7.43;;;19.50;32.60;;;;;;5026799;28;20476;-68
2023/08/12 04:58:08;;;;;;;10.83;8.33;;;19.70;32.30;;;;;;5028320;28;20490;-68
2023/08/12 05:00:34;;;;;;;10.03;8.50;;;19.80;31.70;;;;;;5026580;28;20466;-68
2023/08/12 05:03:02;;;;;;;9.77;8.43;;;19.90;32.00;;;;;;5024767;28;20669;-68
2023/08/12 05:05:30;;;;;;;8.77;7.40;;;20.10;31.90;;;;;;5019493;28;21144;-68
2023/08/12 05:07:57;;;;;;;11.63;7.57;;;20.20;31.70;;;;;;5018345;28;20520;-68
2023/08/12 05:10:24;;;;;;;10.93;8.80;;;20.40;30.90;;;;;;5023620;28;20474;-68
2023/08/12 05:12:53;;;;;;;9.87;8.30;;;20.70;30.10;;;;;;5027195;28;20478;-68
2023/08/12 05:15:20;;;;;;;11.33;8.40;;;20.80;29.60;;;;;;5027945;28;20486;-68
2023/08/12 05:17:47;;;;;;;10.47;8.93;;;21.00;29.00;;;;;;5024691;28;20482;-68
2023/08/12 05:20:14;;;;;;;10.10;8.43;;;21.20;28.20;;;;;;5026211;28;20458;-65
2023/08/12 05:22:42;;;;;;;9.23;7.10;;;21.30;28.00;;;;;;5027016;28;20461;-64
2023/08/12 05:25:09;;;;;;;10.87;7.60;;;21.50;27.50;;;;;;5024638;28;20780;-64
2023/08/12 05:27:36;;;;;;;11.33;8.83;;;21.70;26.30;;;;;;5024415;28;20845;-65
2023/08/12 05:30:03;;;;;;;9.53;8.53;;;21.90;25.70;;;;;;5029396;28;20459;-65
2023/08/12 05:32:29;;;;;;;11.57;8.40;;;21.90;25.50;;;;;;5026372;28;20477;-65
2023/08/12 05:34:56;;;;;;;10.20;8.13;;;22.00;25.50;;;;;;5023821;28;20478;-65
2023/08/12 05:37:23;;;;;;;11.30;7.73;;;22.10;25.10;;;;;;5019794;28;20565;-65
2023/08/12 05:39:51;;;;;;;10.10;8.27;;;22.20;24.50;;;;;;5022704;28;20464;-65
2023/08/12 05:42:18;;;;;;;11.40;8.87;;;22.10;24.80;;;;;;5024734;28;20465;-65
2023/08/12 05:44:44;;;;;;;13.17;9.43;;;22.00;25.20;;;;;;5025303;28;20459;-65
2023/08/12 05:47:11;;;;;;;12.93;7.97;;;22.00;25.30;;;;;;5024940;28;20494;-65
2023/08/12 05:49:38;;;;;;;13.10;9.03;;;22.00;25.40;;;;;;5024444;28;20474;-65
2023/08/12 05:52:05;;;;;;;10.50;8.83;;;22.20;25.40;;;;;;5023567;28;20466;-65
2023/08/12 05:54:32;;;;;;;12.43;9.00;;;22.30;25.10;;;;;;5023734;28;20498;-65
2023/08/12 05:57:00;;;;;;;11.90;9.07;;;22.60;24.60;;;;;;5024467;28;20467;-66
2023/08/12 05:59:27;;;;;;;22.43;8.17;;;22.90;24.30;;;;;;5026981;28;20475;-65
2023/08/12 06:01:54;;;;;;;13.87;9.07;;;23.30;22.70;;;;;;5026881;28;20475;-65
2023/08/12 06:04:21;;;;;;;12.60;8.63;;;23.50;21.60;;;;;;5027929;28;20455;-65
2023/08/12 06:06:47;;;;;;;9.87;8.40;;;23.60;21.10;;;;;;5024687;28;20978;-65
2023/08/12 06:09:14;;;;;;;10.93;8.73;;;23.80;20.70;;;;;;5028875;28;20491;-64
2023/08/12 06:11:41;;;;;;;10.77;8.50;;;24.00;19.90;;;;;;5030359;28;20495;-65
2023/08/12 06:14:09;;;;;;;16.60;7.97;;;24.10;19.60;;;;;;5023788;28;20467;-66
2023/08/12 06:16:36;;;;;;;10.40;9.13;;;24.10;19.20;;;;;;5028795;28;20478;-65
2023/08/12 06:19:03;;;;;;;9.73;8.70;;;24.10;19.30;;;;;;5030109;28;20491;-65
2023/08/12 06:21:29;;;;;;;9.87;8.63;;;24.00;19.40;;;;;;5023809;28;20462;-65
2023/08/12 06:23:56;;;;;;;12.73;9.37;;;23.80;19.40;;;;;;5027533;28;21085;-65
2023/08/12 06:26:23;;;;;;;11.17;9.13;;;23.70;19.70;;;;;;5026865;28;20455;-65
2023/08/12 06:28:50;;;;;;;11.47;10.30;;;23.70;20.00;;;;;;5025130;28;20486;-65
2023/08/12 06:31:18;;;;;;;12.00;9.03;;;23.60;20.10;;;;;;5023822;28;20501;-64
2023/08/12 06:33:44;;;;;;;10.47;8.47;;;23.60;20.30;;;;;;5023229;28;20960;-64
2023/08/12 06:36:12;;;;;;;12.73;8.93;;;23.60;20.30;;;;;;5021077;28;20501;-64
2023/08/12 06:38:39;;;;;;;12.13;9.80;;;23.70;20.40;;;;;;5019925;28;20975;-64
2023/08/12 06:41:05;;;;;;;11.47;9.40;;;23.70;20.70;;;;;;5022011;28;20463;-64
2023/08/12 06:43:32;;;;;;;12.63;9.87;;;23.70;20.70;;;;;;5019984;28;20979;-65
2023/08/12 06:45:59;;;;;;;11.50;9.60;;;23.60;20.60;;;;;;5020061;28;20467;-65
2023/08/12 06:48:27;;;;;;;12.07;9.90;;;23.60;20.50;;;;;;5023718;28;20983;-64
2023/08/12 06:50:55;;;;;;;11.50;9.80;;;23.70;20.90;;;;;;5023278;28;20471;-64
2023/08/12 06:53:21;;;;;;;12.00;9.00;;;24.00;20.10;;;;;;5024304;28;20491;-64
2023/08/12 06:55:48;;;;;;;12.60;9.17;;;24.10;19.90;;;;;;5024165;28;20486;-64
2023/08/12 06:58:15;;;;;;;11.90;9.60;;;24.30;19.70;;;;;;5025705;28;20491;-64
2023/08/12 07:00:42;;;;;;;13.00;11.00;;;24.40;19.50;;;;;;5024197;28;20508;-64
2023/08/12 07:03:08;;;;;;;13.23;9.93;;;24.70;18.80;;;;;;5044562;23;21146;-67
2023/08/12 07:05:36;;;;;;;12.73;10.80;;;25.00;17.60;;;;;;5045903;28;20993;-66
2023/08/12 07:08:04;;;;;;;11.37;10.07;;;25.30;16.60;;;;;;5045425;28;20486;-67
2023/08/12 07:10:30;;;;;;;13.60;9.10;;;25.50;16.80;;;;;;5045807;28;20461;-67
2023/08/12 07:12:57;;;;;;;13.63;9.73;;;25.70;16.50;;;;;;5045959;28;20455;-67
2023/08/12 07:15:24;;;;;;;11.70;9.40;;;26.20;16.10;;;;;;5045472;28;20561;-67
2023/08/12 07:17:50;;;;;;;11.07;9.70;;;26.80;14.70;;;;;;5044394;28;20485;-67
2023/08/12 07:20:17;;;;;;;11.67;9.83;;;27.40;13.70;;;;;;5044738;28;20466;-68
2023/08/12 07:22:45;;;;;;;11.40;9.67;;;27.60;12.30;;;;;;5042252;28;20466;-69
2023/08/12 07:25:12;;;;;;;14.40;10.17;;;27.80;11.60;;;;;;5038593;28;20459;-70
2023/08/12 07:27:39;;;;;;;10.33;9.20;;;28.00;11.40;;;;;;5037618;28;20497;-72
2023/08/12 07:30:07;;;;;;;12.57;9.43;;;28.20;10.60;;;;;;5042196;28;20466;-71
2023/08/12 07:32:34;;;;;;;10.93;9.27;;;28.30;10.00;;;;;;5042222;28;21101;-71
2023/08/12 07:35:01;;;;;;;12.73;10.07;;;28.30;9.90;;;;;;5044560;28;20482;-71
2023/08/12 07:37:27;;;;;;;14.57;10.03;;;28.50;9.50;;;;;;5040403;28;20482;-69
2023/08/12 07:39:55;;;;;;;10.77;9.20;;;30.70;8.00;;;;;;5044071;28;20462;-69
2023/08/12 07:42:22;;;;;;;13.10;9.30;;;34.80;1.00;;;;;;5044014;28;20481;-69
2023/08/12 07:44:49;;;;;;;10.17;8.50;;;38.30;1.00;;;;;;5041736;28;20980;-70
2023/08/12 07:47:16;;;;;;;13.80;9.07;;;41.30;1.00;;;;;;5046188;28;20485;-70
2023/08/12 07:49:43;;;;;;;10.63;8.53;;;43.70;1.00;;;;;;5044905;28;20466;-68
2023/08/12 07:52:10;;;;;;;10.90;8.20;;;43.80;1.00;;;;;;5043967;28;20947;-68
2023/08/12 07:54:37;;;;;;;9.77;8.20;;;42.90;1.00;;;;;;5045549;28;20462;-67
2023/08/12 07:57:05;;;;;;;10.37;8.10;;;42.40;1.00;;;;;;5042023;28;20490;-69
2023/08/12 07:59:32;;;;;;;9.40;8.10;;;41.90;1.00;;;;;;5040920;28;20458;-70
2023/08/12 08:01:59;;;;;;;7.93;6.60;;;41.20;1.00;;;;;;5042523;28;20466;-71
2023/08/12 08:04:25;;;;;;;9.53;6.77;;;40.90;1.00;;;;;;5038914;28;20473;-71
2023/08/12 08:06:52;;;;;;;8.83;6.90;;;41.90;1.00;;;;;;5035245;28;21028;-71
2023/08/12 08:09:19;;;;;;;9.33;6.73;;;44.10;1.00;;;;;;5038367;28;20463;-71
2023/08/12 08:11:45;;;;;;;9.10;7.33;;;45.90;1.00;;;;;;5045781;28;20953;-71
2023/08/12 08:14:13;;;;;;;6.77;5.90;;;48.20;1.00;;;;;;5043907;28;20470;-71
2023/08/12 08:16:41;;;;;;;7.33;6.50;;;50.00;1.00;;;;;;5046867;28;20481;-71
2023/08/12 08:19:09;;;;;;;8.20;6.17;;;51.30;1.00;;;;;;5047017;28;20478;-71
2023/08/12 08:21:36;;;;;;;6.30;4.97;;;52.40;1.00;;;;;;5047260;28;20457;-71
2023/08/12 08:24:02;;;;;;;6.80;5.03;;;53.40;1.00;;;;;;5044508;28;20457;-71
2023/08/12 08:26:29;;;;;;;6.50;4.70;;;54.30;1.00;;;;;;5047536;28;20822;-71
2023/08/12 08:28:56;;;;;;;6.33;4.97;;;52.90;1.00;;;;;;5050184;28;20473;-71
2023/08/12 08:31:24;;;;;;;9.33;4.67;;;50.40;1.00;;;;;;5052251;28;20504;-71
2023/08/12 08:33:51;;;;;;;6.20;4.90;;;50.10;1.00;;;;;;5048174;28;20480;-71
2023/08/12 08:36:18;;;;;;;6.87;4.43;;;51.50;1.00;;;;;;5049326;28;20481;-71
2023/08/12 08:38:45;;;;;;;7.63;3.90;;;52.80;1.00;;;;;;5049475;28;20480;-71
2023/08/12 08:41:12;;;;;;;5.60;4.43;;;54.10;1.00;;;;;;5048820;28;20466;-71
2023/08/12 08:43:44;;;;;;;6.00;5.03;;;54.80;1.00;;;;;;5050582;28;20454;-71
2023/08/12 08:46:13;;;;;;;7.90;3.87;;;55.40;1.00;;;;;;5050871;28;20454;-72
2023/08/12 08:48:42;;;;;;;5.87;4.40;;;55.60;1.00;;;;;;5051933;28;20476;-71
2023/08/12 08:51:10;;;;;;;5.73;3.57;;;56.00;1.00;;;;;;5051281;28;20199;-71
2023/08/12 08:53:38;;;;;;;5.67;4.00;;;56.10;1.00;;;;;;5049248;28;20196;-71
2023/08/12 08:56:06;;;;;;;7.30;4.60;;;55.20;1.00;;;;;;5048373;28;20226;-71
2023/08/12 08:58:33;;;;;;;4.17;3.57;;;53.60;1.00;;;;;;5049566;28;20481;-71
2023/08/12 09:01:00;;;;;;;6.63;3.87;;;51.80;1.00;;;;;;5047334;28;21012;-71
2023/08/12 09:03:27;;;;;;;6.27;3.97;;;49.70;1.00;;;;;;5054687;28;20461;-71
2023/08/12 09:05:56;;;;;;;6.40;4.17;;;48.10;1.00;;;;;;5047252;28;20472;-71
2023/08/12 09:08:24;;;;;;;5.47;4.50;;;47.10;1.00;;;;;;5049704;28;21088;-71
2023/08/12 09:10:51;;;;;;;6.67;4.40;;;45.70;1.00;;;;;;5049471;28;20484;-71
2023/08/12 09:13:18;;;;;;;7.13;4.20;;;44.20;1.00;;;;;;5049789;28;20461;-71
2023/08/12 09:15:45;;;;;;;5.40;3.70;;;42.80;1.00;;;;;;5049212;28;20488;-71
2023/08/12 09:18:12;;;;;;;5.63;4.20;;;41.50;1.00;;;;;;5049349;28;20930;-70
2023/08/12 09:20:39;;;;;;;5.63;4.23;;;40.80;1.00;;;;;;5049364;28;20457;-71
2023/08/12 09:23:08;;;;;;;6.93;4.67;;;40.10;1.00;;;;;;5048910;28;20979;-71
2023/08/12 09:25:35;;;;;;;7.00;4.30;;;39.20;1.00;;;;;;5048290;28;20454;-70
2023/08/12 09:28:02;;;;;;;5.77;4.37;;;38.20;1.00;;;;;;5050788;28;20473;-70
2023/08/12 09:30:31;;;;;;;10.37;5.30;;;37.30;1.00;;;;;;5046971;28;20469;-71
2023/08/12 09:33:03;;;;;;;6.90;5.23;;;36.40;1.00;;;;;;5047931;28;20512;-70
2023/08/12 09:35:37;;;;;;;8.20;4.40;;;35.70;1.00;;;;;;5049693;28;20537;-70
2023/08/12 09:38:07;;;;;;;8.00;4.70;;;35.30;1.00;;;;;;5048189;28;20480;-71
2023/08/12 09:40:35;;;;;;;8.83;5.30;;;35.10;1.00;;;;;;5048493;28;20462;-71
2023/08/12 09:43:02;;;;;;;6.50;4.50;;;34.70;1.00;;;;;;5049385;28;20457;-71
2023/08/12 09:45:29;;;;;;;7.60;4.97;;;34.30;1.00;;;;;;5050918;28;20461;-71
2023/08/12 09:47:56;;;;;;;6.53;4.37;;;34.00;1.00;;;;;;5050162;28;20473;-70
2023/08/12 09:50:23;;;;;;;8.67;5.30;;;33.80;1.00;;;;;;5048602;28;20454;-70
2023/08/12 09:52:51;;;;;;;6.80;5.20;;;33.60;1.00;;;;;;5050665;28;20809;-71
2023/08/12 09:55:20;;;;;;;6.97;5.20;;;33.40;1.00;;;;;;5049330;28;20459;-70
2023/08/12 09:57:52;;;;;;;6.73;4.80;;;34.20;1.00;;;;;;5050509;28;20482;-70
2023/08/12 10:00:19;;;;;;;6.30;4.33;;;37.50;1.00;;;;;;5048875;28;20797;-70
2023/08/12 10:02:47;;;;;;;9.90;4.60;;;40.50;1.00;;;;;;5050290;28;20466;-70
2023/08/12 10:05:19;;;;;;;11.33;4.23;;;42.80;1.00;;;;;;5048840;28;20465;-70
2023/08/12 10:07:48;;;;;;;9.87;4.07;;;42.50;1.00;;;;;;5049807;28;20474;-70
2023/08/12 10:10:15;;;;;;;10.13;4.57;;;41.00;1.00;;;;;;5049827;28;20545;-70
2023/08/12 10:12:43;;;;;;;6.47;4.27;;;39.60;1.00;;;;;;5050451;28;20815;-71
2023/08/12 10:15:11;;;;;;;7.37;4.37;;;38.50;1.00;;;;;;5049406;28;20536;-70
2023/08/12 10:17:39;;;;;;;6.83;4.40;;;37.60;1.00;;;;;;5049628;28;20485;-70
2023/08/12 10:20:08;;;;;;;8.90;4.40;;;36.80;1.00;;;;;;5046721;28;20453;-70
2023/08/12 10:22:37;;;;;;;13.87;5.30;;;36.00;1.00;;;;;;5048136;28;20450;-70
2023/08/12 10:25:04;;;;;;;9.43;5.20;;;35.40;1.00;;;;;;5049338;28;20484;-69
2023/08/12 10:27:31;;;;;;;7.60;4.97;;;34.80;1.00;;;;;;5045947;28;20470;-70
2023/08/12 10:30:00;;;;;;;8.33;4.57;;;34.30;1.00;;;;;;5043091;28;20461;-70
2023/08/12 10:32:27;;;;;;;8.63;4.50;;;33.90;1.00;;;;;;5045817;28;20469;-70
2023/08/12 10:34:57;;;;;;;6.87;4.70;;;33.60;1.00;;;;;;5043644;28;20462;-70
2023/08/12 10:37:24;;;;;;;6.20;4.83;;;33.40;1.00;;;;;;5046433;28;20583;-70
2023/08/12 10:39:53;;;;;;;7.10;4.47;;;33.30;1.00;;;;;;5049486;28;20458;-69
2023/08/12 10:42:41;;;;;;;7.47;3.43;;;33.30;1.00;;;;;;5046343;28;20485;-69
2023/08/12 10:45:10;;;;;;;6.20;3.80;;;33.60;1.00;;;;;;5045867;28;20486;-70
2023/08/12 10:47:40;;;;;;;5.90;3.97;;;34.00;1.00;;;;;;5047977;28;20474;-70
2023/08/12 10:50:16;;;;;;;6.47;4.23;;;34.20;1.00;;;;;;5045980;28;20469;-70
2023/08/12 10:52:45;;;;;;;5.47;3.97;;;34.20;1.00;;;;;;5049231;28;20472;-70
2023/08/12 10:55:22;;;;;;;9.90;4.00;;;34.20;1.00;;;;;;5049475;28;20449;-70
2023/08/12 10:57:49;;;;;;;6.50;3.60;;;34.20;1.00;;;;;;5049141;28;20513;-70
2023/08/12 11:00:21;;;;;;;6.07;4.30;;;34.10;1.00;;;;;;5047431;28;20462;-70
2023/08/12 11:02:51;;;;;;;8.40;3.57;;;34.00;1.00;;;;;;5046802;28;20941;-70
2023/08/12 11:05:19;;;;;;;5.87;4.10;;;33.70;1.00;;;;;;5046216;28;20542;-70
2023/08/12 11:07:48;;;;;;;5.90;3.60;;;33.40;1.00;;;;;;5049119;28;20478;-70
2023/08/12 11:10:17;;;;;;;7.20;4.10;;;33.10;1.00;;;;;;5048306;28;20536;-70
2023/08/12 11:12:54;;;;;;;4.70;3.40;;;32.90;1.00;;;;;;5047663;28;20485;-70
2023/08/12 11:15:33;;;;;;;6.00;3.77;;;32.70;1.00;;;;;;5046320;28;20469;-70
2023/08/12 11:18:03;;;;;;;8.10;5.03;;;32.50;1.00;;;;;;5045934;28;20493;-70
2023/08/12 11:20:30;;;;;;;5.57;3.77;;;32.30;1.00;;;;;;5047693;28;20461;-70
2023/08/12 11:22:58;;;;;;;6.33;4.40;;;32.10;1.00;;;;;;5047170;28;20551;-70
2023/08/12 11:25:25;;;;;;;5.07;3.53;;;32.10;1.00;;;;;;5047270;28;20465;-70
2023/08/12 11:27:52;;;;;;;6.00;4.20;;;32.00;1.00;;;;;;5048011;28;20492;-70
2023/08/12 11:30:22;;;;;;;5.60;3.33;;;32.00;1.00;;;;;;5047039;28;20467;-70
2023/08/12 11:32:51;;;;;;;8.33;3.93;;;31.90;1.00;;;;;;5046642;28;20682;-70
2023/08/12 11:35:19;;;;;;;5.43;3.73;;;31.90;1.00;;;;;;5047072;28;20468;-70
2023/08/12 11:37:47;;;;;;;6.30;4.47;;;32.00;1.00;;;;;;5046634;28;20493;-70
2023/08/12 11:40:16;;;;;;;10.57;4.43;;;32.10;1.00;;;;;;5048420;28;20458;-70
2023/08/12 11:42:44;;;;;;;6.50;3.93;;;32.30;1.00;;;;;;5047067;28;20545;-70
2023/08/12 11:45:12;;;;;;;6.23;4.10;;;32.40;1.00;;;;;;5045126;28;20875;-70
2023/08/12 11:47:40;;;;;;;8.93;4.03;;;32.30;1.00;;;;;;5047587;28;20474;-70
2023/08/12 11:50:10;;;;;;;5.60;4.10;;;32.20;1.00;;;;;;5047938;28;20487;-70
2023/08/12 11:52:38;;;;;;;9.77;4.80;;;32.10;1.00;;;;;;5046755;28;20462;-70
2023/08/12 11:55:06;;;;;;;5.90;4.20;;;32.00;1.40;;;;;;5046548;28;20466;-70
2023/08/12 11:57:34;;;;;;;6.10;4.27;;;32.10;1.60;;;;;;5047215;28;20834;-70
2023/08/12 12:00:02;;;;;;;6.30;4.00;;;32.30;1.20;;;;;;5047873;28;20542;-70
2023/08/12 12:02:29;;;;;;;7.13;4.50;;;32.50;1.00;;;;;;5045702;28;20975;-70
2023/08/12 12:04:56;;;;;;;7.93;4.70;;;32.70;1.00;;;;;;5046621;28;20473;-71
2023/08/12 12:07:27;;;;;;;8.43;4.40;;;32.70;1.00;;;;;;5046548;28;20500;-70
2023/08/12 12:09:55;;;;;;;8.37;4.17;;;32.60;1.00;;;;;;5045518;28;20459;-70
2023/08/12 12:12:25;;;;;;;7.00;5.30;;;32.40;1.00;;;;;;5046945;28;20447;-70
2023/08/12 12:14:53;;;;;;;6.40;5.00;;;32.40;1.30;;;;;;5048115;28;20523;-69
2023/08/12 12:17:22;;;;;;;7.17;4.70;;;32.30;1.00;;;;;;5045599;28;20536;-69
2023/08/12 12:19:53;;;;;;;5.80;4.23;;;32.10;1.80;;;;;;5044680;28;20488;-70
2023/08/12 12:22:20;;;;;;;6.60;4.40;;;32.00;2.80;;;;;;5046662;28;20458;-70
2023/08/12 12:24:48;;;;;;;9.77;4.57;;;31.80;2.40;;;;;;5046938;28;20477;-70
2023/08/12 12:27:15;;;;;;;11.87;4.90;;;31.60;2.60;;;;;;5045621;28;20496;-70
2023/08/12 12:29:42;;;;;;;8.33;4.47;;;31.40;3.10;;;;;;5047634;28;20468;-69
2023/08/12 12:32:09;;;;;;;6.80;4.67;;;31.30;3.30;;;;;;5044379;28;20477;-70
2023/08/12 12:34:36;;;;;;;8.20;4.93;;;31.30;4.30;;;;;;5049568;28;20497;-69
2023/08/12 12:37:03;;;;;;;7.30;5.20;;;31.30;3.40;;;;;;5046124;28;20514;-70
2023/08/12 12:39:29;;;;;;;7.90;5.30;;;31.30;3.90;;;;;;5046475;28;20466;-70
2023/08/12 12:41:59;;;;;;;6.77;5.37;;;31.30;3.70;;;;;;5044225;28;20457;-70
2023/08/12 12:44:26;;;;;;;6.77;4.90;;;31.30;4.20;;;;;;5045120;28;20497;-69